createdAt,value
2023-03-05T00:01:40.856Z,3.30
2023-03-05T00:04:14.481Z,3.30
2023-03-05T00:06:42.928Z,3.20
2023-03-05T00:09:11.232Z,3.20
2023-03-05T00:11:39.900Z,3.20
2023-03-05T00:14:08.606Z,3.20
2023-03-05T00:16:36.908Z,3.20
2023-03-05T00:19:05.622Z,3.20
2023-03-05T00:21:37.700Z,3.20
2023-03-05T00:24:08.267Z,3.20
2023-03-05T00:26:40.154Z,3.20
2023-03-05T00:29:09.749Z,3.20
2023-03-05T00:31:39.001Z,3.20
2023-03-05T00:34:09.474Z,3.20
2023-03-05T00:36:42.833Z,3.20
2023-03-05T00:39:11.697Z,3.20
2023-03-05T00:41:40.174Z,3.20
2023-03-05T00:44:08.853Z,3.10
2023-03-05T00:46:37.689Z,3.10
2023-03-05T00:49:06.516Z,3.10
2023-03-05T00:51:35.092Z,3.10
2023-03-05T00:54:05.307Z,3.10
2023-03-05T00:56:33.710Z,3.10
2023-03-05T00:59:02.155Z,3.10
2023-03-05T01:01:30.780Z,3.10
2023-03-05T01:04:01.178Z,3.00
2023-03-05T01:06:30.023Z,3.00
2023-03-05T01:08:59.294Z,3.00
2023-03-05T01:11:29.120Z,3.00
2023-03-05T01:13:57.727Z,3.00
2023-03-05T01:16:26.069Z,3.00
2023-03-05T01:18:54.853Z,3.00
2023-03-05T01:21:23.291Z,3.00
2023-03-05T01:23:51.942Z,3.00
2023-03-05T01:26:20.529Z,3.00
2023-03-05T01:28:50.393Z,3.00
2023-03-05T01:31:18.778Z,2.90
2023-03-05T01:33:47.304Z,2.90
2023-03-05T01:36:17.117Z,2.90
2023-03-05T01:38:46.654Z,2.80
2023-03-05T01:41:16.646Z,2.80
2023-03-05T01:43:46.954Z,2.80
2023-03-05T01:46:35.892Z,2.80
2023-03-05T01:49:20.705Z,2.80
2023-03-05T01:52:07.720Z,2.70
2023-03-05T01:54:40.196Z,2.70
2023-03-05T01:57:13.913Z,2.70
2023-03-05T01:59:44.982Z,2.70
2023-03-05T02:02:15.250Z,2.70
2023-03-05T02:04:47.116Z,2.70
2023-03-05T02:07:17.079Z,2.70
2023-03-05T02:09:45.519Z,2.70
2023-03-05T02:12:14.582Z,2.80
2023-03-05T02:14:46.550Z,2.80
2023-03-05T02:17:17.152Z,2.80
2023-03-05T02:19:51.000Z,2.80
2023-03-05T02:22:23.090Z,2.80
2023-03-05T02:24:52.406Z,2.80
2023-03-05T02:27:27.249Z,2.80
2023-03-05T02:29:55.637Z,2.80
2023-03-05T02:32:24.083Z,2.80
2023-03-05T02:34:52.557Z,2.80
2023-03-05T02:37:22.289Z,2.80
2023-03-05T02:39:50.897Z,2.80
2023-03-05T02:42:19.169Z,2.80
2023-03-05T02:44:47.528Z,2.80
2023-03-05T02:47:16.259Z,2.80
2023-03-05T02:49:44.680Z,2.80
2023-03-05T02:52:13.050Z,2.80
2023-03-05T02:54:43.216Z,2.80
2023-03-05T02:57:11.625Z,2.90
2023-03-05T02:59:40.176Z,2.90
2023-03-05T03:02:08.605Z,2.90
2023-03-05T03:04:37.049Z,2.80
2023-03-05T03:07:05.801Z,2.90
2023-03-05T03:09:35.446Z,2.80
2023-03-05T03:12:05.927Z,2.80
2023-03-05T03:14:39.021Z,2.80
2023-03-05T03:17:08.081Z,2.80
2023-03-05T03:19:37.676Z,2.80
2023-03-05T03:22:06.745Z,2.80
2023-03-05T03:24:37.024Z,2.80
2023-03-05T03:27:06.881Z,2.80
2023-03-05T03:29:35.670Z,2.90
2023-03-05T03:32:04.873Z,2.90
2023-03-05T03:34:36.255Z,2.90
2023-03-05T03:37:04.596Z,2.90
2023-03-05T03:39:32.975Z,2.80
2023-03-05T03:42:01.783Z,2.80
2023-03-05T03:44:31.552Z,2.80
2023-03-05T03:46:59.974Z,2.80
2023-03-05T03:49:28.504Z,2.80
2023-03-05T03:51:58.286Z,2.80
2023-03-05T03:54:27.022Z,2.80
2023-03-05T03:56:55.443Z,2.80
2023-03-05T03:59:27.007Z,2.80
2023-03-05T04:01:56.774Z,2.80
2023-03-05T04:04:26.611Z,2.80
2023-03-05T04:06:55.074Z,2.80
2023-03-05T04:09:23.341Z,2.80
2023-03-05T04:11:51.788Z,2.80
2023-03-05T04:14:20.195Z,2.80
2023-03-05T04:16:48.605Z,2.80
2023-03-05T04:19:18.431Z,2.80
2023-03-05T04:21:46.897Z,2.80
2023-03-05T04:24:15.270Z,2.80
2023-03-05T04:26:43.637Z,2.80
2023-03-05T04:29:12.035Z,2.80
2023-03-05T04:31:40.370Z,2.80
2023-03-05T04:34:08.712Z,2.80
2023-03-05T04:36:38.415Z,2.80
2023-03-05T04:39:06.720Z,2.80
2023-03-05T04:41:35.070Z,2.80
2023-03-05T04:44:03.472Z,2.80
2023-03-05T04:46:32.083Z,2.70
2023-03-05T04:49:01.055Z,2.70
2023-03-05T04:51:29.444Z,2.80
2023-03-05T04:53:59.641Z,2.80
2023-03-05T04:56:27.967Z,2.80
2023-03-05T04:58:56.422Z,2.80
2023-03-05T05:01:24.904Z,2.70
2023-03-05T05:03:53.282Z,2.80
2023-03-05T05:06:21.585Z,2.70
2023-03-05T05:08:50.020Z,2.80
2023-03-05T05:11:19.797Z,2.80
2023-03-05T05:13:48.110Z,2.80
2023-03-05T05:16:16.729Z,2.70
2023-03-05T05:18:45.082Z,2.70
2023-03-05T05:21:15.569Z,2.80
2023-03-05T05:23:43.963Z,2.70
2023-03-05T05:26:14.343Z,2.70
2023-03-05T05:28:47.461Z,2.70
2023-03-05T05:31:17.482Z,2.80
2023-03-05T05:33:48.753Z,2.70
2023-03-05T05:36:19.377Z,2.70
2023-03-05T05:38:47.757Z,2.80
2023-03-05T05:41:18.602Z,2.80
2023-03-05T05:43:49.852Z,2.80
2023-03-05T05:46:20.081Z,2.80
2023-03-05T05:48:49.595Z,2.80
2023-03-05T05:51:22.341Z,2.70
2023-03-05T05:53:51.288Z,2.70
2023-03-05T05:56:20.149Z,2.70
2023-03-05T05:58:50.523Z,2.60
2023-03-05T06:01:22.252Z,2.60
2023-03-05T06:03:51.087Z,2.60
2023-03-05T06:06:21.262Z,2.60
2023-03-05T06:08:50.711Z,2.60
2023-03-05T06:11:19.921Z,2.60
2023-03-05T06:13:50.007Z,2.60
2023-03-05T06:16:20.447Z,2.60
2023-03-05T06:18:49.334Z,2.60
2023-03-05T06:21:19.413Z,2.60
2023-03-05T06:23:49.269Z,2.60
2023-03-05T06:26:19.612Z,2.60
2023-03-05T06:28:49.883Z,2.70
2023-03-05T06:31:21.960Z,2.70
2023-03-05T06:33:51.057Z,2.70
2023-03-05T06:36:21.568Z,2.70
2023-03-05T06:38:52.065Z,2.70
2023-03-05T06:41:23.778Z,2.70
2023-03-05T06:43:54.101Z,2.70
2023-03-05T06:46:24.297Z,2.70
2023-03-05T06:48:53.331Z,2.70
2023-03-05T06:51:24.776Z,2.80
2023-03-05T06:53:54.341Z,2.80
2023-03-05T06:56:23.244Z,2.80
2023-03-05T06:58:53.699Z,2.80
2023-03-05T07:01:23.749Z,2.80
2023-03-05T07:03:53.027Z,2.80
2023-03-05T07:06:22.469Z,2.80
2023-03-05T07:08:50.792Z,2.80
2023-03-05T07:11:20.850Z,2.90
2023-03-05T07:13:49.653Z,2.90
2023-03-05T07:16:21.176Z,3.00
2023-03-05T07:18:50.173Z,3.00
2023-03-05T07:21:26.762Z,3.10
2023-03-05T07:23:55.717Z,3.10
2023-03-05T07:26:24.450Z,3.10
2023-03-05T07:28:53.171Z,3.10
2023-03-05T07:31:27.295Z,3.10
2023-03-05T07:33:55.901Z,3.10
2023-03-05T07:36:27.766Z,3.10
2023-03-05T07:38:59.864Z,3.10
2023-03-05T07:41:28.406Z,3.10
2023-03-05T07:43:56.959Z,3.10
2023-03-05T07:46:29.004Z,3.10
2023-03-05T07:48:57.704Z,3.10
2023-03-05T07:51:27.785Z,3.10
2023-03-05T07:53:58.691Z,3.10
2023-03-05T07:56:29.883Z,3.20
2023-03-05T07:58:58.385Z,3.20
2023-03-05T08:01:29.456Z,3.30
2023-03-05T08:03:57.895Z,3.30
2023-03-05T08:06:26.406Z,3.30
2023-03-05T08:08:54.770Z,3.40
2023-03-05T08:11:23.346Z,3.40
2023-03-05T08:13:52.102Z,3.50
2023-03-05T08:16:26.121Z,3.50
2023-03-05T08:18:58.453Z,3.60
2023-03-05T08:21:29.445Z,3.60
2023-03-05T08:23:58.590Z,3.70
2023-03-05T08:26:29.178Z,3.80
2023-03-05T08:28:57.853Z,4.00
2023-03-05T08:31:27.952Z,4.10
2023-03-05T08:33:59.781Z,4.20
2023-03-05T08:36:28.976Z,4.30
2023-03-05T08:38:59.185Z,4.30
2023-03-05T08:41:27.715Z,4.30
2023-03-05T08:43:56.189Z,4.30
2023-03-05T08:46:24.765Z,4.40
2023-03-05T08:48:53.182Z,4.30
2023-03-05T08:51:26.074Z,4.30
2023-03-05T08:53:56.037Z,4.30
2023-03-05T08:56:26.264Z,4.30
2023-03-05T08:58:54.570Z,4.20
2023-03-05T09:01:24.132Z,4.10
2023-03-05T09:03:53.071Z,4.00
2023-03-05T09:06:22.848Z,4.00
2023-03-05T09:08:51.445Z,4.00
2023-03-05T09:11:20.275Z,4.10
2023-03-05T09:13:48.625Z,4.20
2023-03-05T09:16:19.416Z,4.30
2023-03-05T09:18:47.982Z,4.30
2023-03-05T09:21:18.424Z,4.40
2023-03-05T09:23:48.734Z,4.50
2023-03-05T09:26:19.475Z,4.60
2023-03-05T09:28:48.512Z,4.80
2023-03-05T09:31:17.289Z,4.80
2023-03-05T09:33:45.813Z,4.90
2023-03-05T09:36:22.572Z,5.00
2023-03-05T09:38:52.676Z,5.10
2023-03-05T09:41:34.759Z,5.10
2023-03-05T09:44:12.931Z,4.90
2023-03-05T09:46:52.863Z,5.00
2023-03-05T09:49:33.460Z,4.90
2023-03-05T09:52:08.467Z,4.90
2023-03-05T09:54:42.189Z,4.80
2023-03-05T09:57:19.126Z,4.60
2023-03-05T09:59:51.677Z,4.60
2023-03-05T10:02:24.340Z,4.60
2023-03-05T10:04:56.665Z,4.50
2023-03-05T10:07:29.471Z,4.60
2023-03-05T10:10:03.053Z,4.50
2023-03-05T10:12:42.696Z,4.60
2023-03-05T10:15:14.422Z,4.60
2023-03-05T10:18:02.008Z,4.70
2023-03-05T10:20:55.187Z,4.80
2023-03-05T10:23:29.678Z,5.00
2023-03-05T10:26:15.806Z,5.00
2023-03-05T10:28:51.693Z,5.10
2023-03-05T10:31:45.429Z,5.10
2023-03-05T10:34:35.167Z,5.00
2023-03-05T10:37:24.768Z,5.00
2023-03-05T10:40:09.945Z,5.00
2023-03-05T10:42:48.493Z,5.20
2023-03-05T10:45:20.252Z,5.40
2023-03-05T10:47:53.564Z,5.40
2023-03-05T10:50:26.897Z,5.40
2023-03-05T10:53:08.645Z,5.20
2023-03-05T10:55:37.474Z,5.20
2023-03-05T10:58:13.633Z,5.20
2023-03-05T11:00:58.569Z,5.60
2023-03-05T11:03:27.502Z,6.10
2023-03-05T11:06:01.750Z,6.80
2023-03-05T11:08:33.141Z,7.30
2023-03-05T11:11:23.126Z,7.30
2023-03-05T11:13:58.441Z,7.20
2023-03-05T11:16:28.405Z,7.20
2023-03-05T11:19:19.529Z,7.50
2023-03-05T11:22:06.904Z,7.40
2023-03-05T11:24:35.409Z,7.10
2023-03-05T11:27:22.288Z,6.70
2023-03-05T11:29:53.185Z,6.50
2023-03-05T11:32:25.091Z,6.10
2023-03-05T11:34:54.723Z,5.80
2023-03-05T11:37:27.161Z,5.80
2023-03-05T11:40:19.390Z,5.90
2023-03-05T11:42:55.588Z,5.80
2023-03-05T11:45:26.980Z,6.10
2023-03-05T11:47:57.529Z,6.40
2023-03-05T11:50:28.137Z,6.60
2023-03-05T11:53:03.790Z,6.70
2023-03-05T11:55:37.449Z,6.80
2023-03-05T11:58:19.092Z,7.00
2023-03-05T12:00:49.310Z,7.20
2023-03-05T12:03:21.555Z,7.30
2023-03-05T12:05:52.738Z,7.60
2023-03-05T12:08:26.946Z,7.60
2023-03-05T12:10:55.506Z,7.80
2023-03-05T12:13:32.548Z,7.50
2023-03-05T12:16:25.952Z,7.60
2023-03-05T12:19:02.943Z,7.70
2023-03-05T12:21:37.063Z,7.50
2023-03-05T12:24:36.116Z,7.60
2023-03-05T12:27:10.729Z,7.40
2023-03-05T12:29:45.317Z,7.70
2023-03-05T12:33:02.268Z,7.40
2023-03-05T12:35:41.810Z,7.20
2023-03-05T12:38:31.015Z,7.40
2023-03-05T12:41:35.794Z,7.80
2023-03-05T12:44:21.429Z,8.00
2023-03-05T12:47:19.362Z,8.00
2023-03-05T12:49:49.272Z,8.30
2023-03-05T12:52:31.884Z,8.30
2023-03-05T12:55:20.156Z,8.10
2023-03-05T12:57:53.702Z,8.00
2023-03-05T13:00:29.050Z,8.10
2023-03-05T13:03:00.198Z,8.20
2023-03-05T13:05:31.541Z,8.10
2023-03-05T13:08:16.071Z,8.00
2023-03-05T13:10:51.421Z,8.10
2023-03-05T13:13:29.966Z,8.60
2023-03-05T13:15:59.026Z,9.10
2023-03-05T13:18:28.942Z,9.30
2023-03-05T13:21:04.841Z,9.20
2023-03-05T13:23:36.710Z,9.50
2023-03-05T13:26:13.478Z,10.00
2023-03-05T13:28:42.658Z,10.10
2023-03-05T13:31:17.842Z,10.80
2023-03-05T13:33:53.429Z,11.10
2023-03-05T13:36:22.617Z,10.70
2023-03-05T13:38:52.780Z,10.10
2023-03-05T13:41:24.341Z,10.00
2023-03-05T13:43:58.128Z,10.30
2023-03-05T13:46:31.790Z,10.60
2023-03-05T13:49:19.085Z,10.90
2023-03-05T13:51:54.890Z,11.00
2023-03-05T13:54:26.444Z,11.10
2023-03-05T13:56:58.092Z,11.40
2023-03-05T13:59:29.545Z,11.70
2023-03-05T14:01:59.854Z,11.70
2023-03-05T14:04:30.238Z,11.70
2023-03-05T14:07:01.325Z,12.00
2023-03-05T14:09:33.361Z,11.40
2023-03-05T14:12:05.256Z,11.00
2023-03-05T14:14:37.994Z,10.90
2023-03-05T14:17:35.767Z,10.80
2023-03-05T14:20:25.070Z,10.00
2023-03-05T14:22:55.146Z,9.80
2023-03-05T14:25:37.268Z,9.50
2023-03-05T14:28:07.688Z,9.40
2023-03-05T14:30:37.289Z,9.20
2023-03-05T14:33:06.402Z,8.90
2023-03-05T14:35:35.187Z,8.60
2023-03-05T14:38:04.239Z,8.30
2023-03-05T14:40:35.658Z,7.90
2023-03-05T14:43:05.296Z,7.50
2023-03-05T14:45:35.463Z,7.30
2023-03-05T14:48:06.400Z,7.20
2023-03-05T14:50:39.700Z,7.00
2023-03-05T14:53:11.065Z,6.90
2023-03-05T14:55:43.745Z,6.90
2023-03-05T14:58:15.271Z,6.90
2023-03-05T15:00:44.654Z,6.90
2023-03-05T15:03:13.596Z,6.80
2023-03-05T15:05:42.585Z,6.80
2023-03-05T15:08:15.911Z,6.70
2023-03-05T15:10:45.931Z,6.60
2023-03-05T15:13:19.088Z,6.60
2023-03-05T15:15:53.088Z,6.50
2023-03-05T15:18:23.869Z,6.60
2023-03-05T15:20:53.187Z,6.60
2023-03-05T15:23:21.862Z,6.70
2023-03-05T15:25:52.313Z,6.80
2023-03-05T15:28:21.244Z,6.90
2023-03-05T15:30:49.698Z,6.80
2023-03-05T15:33:18.921Z,6.70
2023-03-05T15:35:47.457Z,6.80
2023-03-05T15:38:16.513Z,6.70
2023-03-05T15:40:46.105Z,6.90
2023-03-05T15:43:17.941Z,6.80
2023-03-05T15:45:46.878Z,6.80
2023-03-05T15:48:15.434Z,6.70
2023-03-05T15:50:45.407Z,6.50
2023-03-05T15:53:16.374Z,6.60
2023-03-05T15:55:46.034Z,6.50
2023-03-05T15:58:18.407Z,6.60
2023-03-05T16:00:47.464Z,6.50
2023-03-05T16:03:16.075Z,6.40
2023-03-05T16:05:45.052Z,6.40
2023-03-05T16:08:13.817Z,6.40
2023-03-05T16:10:42.586Z,6.30
2023-03-05T16:13:14.684Z,6.30
2023-03-05T16:15:47.155Z,6.20
2023-03-05T16:18:18.797Z,6.20
2023-03-05T16:20:47.767Z,6.20
2023-03-05T16:23:16.578Z,6.20
2023-03-05T16:25:45.048Z,6.10
2023-03-05T16:28:16.506Z,6.10
2023-03-05T16:30:46.490Z,6.00
2023-03-05T16:33:14.891Z,5.90
2023-03-05T16:35:45.988Z,5.90
2023-03-05T16:38:15.424Z,5.90
2023-03-05T16:41:06.791Z,5.90
2023-03-05T16:43:33.635Z,5.80
2023-03-05T16:46:03.543Z,5.80
2023-03-05T16:48:32.094Z,5.80
2023-03-05T16:51:01.587Z,5.80
2023-03-05T16:53:30.153Z,5.70
2023-03-05T16:55:58.585Z,5.70
2023-03-05T16:58:27.109Z,5.70
2023-03-05T17:00:55.435Z,5.70
2023-03-05T17:03:25.204Z,5.60
2023-03-05T17:05:59.715Z,5.60
2023-03-05T17:08:28.284Z,5.60
2023-03-05T17:10:56.674Z,5.60
2023-03-05T17:13:25.130Z,5.60
2023-03-05T17:15:56.322Z,5.50
2023-03-05T17:18:27.520Z,5.50
2023-03-05T17:20:56.294Z,5.50
2023-03-05T17:23:25.643Z,5.50
2023-03-05T17:25:54.285Z,5.50
2023-03-05T17:28:23.099Z,5.50
2023-03-05T17:30:51.594Z,5.50
2023-03-05T17:33:20.246Z,5.40
2023-03-05T17:35:50.787Z,5.40
2023-03-05T17:38:22.491Z,5.40
2023-03-05T17:40:51.828Z,5.40
2023-03-05T17:43:20.381Z,5.40
2023-03-05T17:45:49.420Z,5.40
2023-03-05T17:48:18.551Z,5.40
2023-03-05T17:50:47.416Z,5.40
2023-03-05T17:53:17.392Z,5.40
2023-03-05T17:55:46.151Z,5.40
2023-03-05T17:58:14.611Z,5.30
2023-03-05T18:00:43.610Z,5.30
2023-03-05T18:03:12.355Z,5.30
2023-03-05T18:05:41.645Z,5.30
2023-03-05T18:08:10.072Z,5.20
2023-03-05T18:10:40.307Z,5.20
2023-03-05T18:13:09.327Z,5.20
2023-03-05T18:15:41.823Z,5.20
2023-03-05T18:18:10.796Z,5.20
2023-03-05T18:20:39.425Z,5.10
2023-03-05T18:23:08.053Z,5.10
2023-03-05T18:25:36.806Z,5.10
2023-03-05T18:28:08.720Z,5.10
2023-03-05T18:30:37.712Z,5.10
2023-03-05T18:33:06.761Z,5.00
2023-03-05T18:35:35.742Z,5.00
2023-03-05T18:38:04.192Z,5.00
2023-03-05T18:40:35.929Z,5.00
2023-03-05T18:43:08.072Z,4.90
2023-03-05T18:45:36.814Z,4.90
2023-03-05T18:48:05.728Z,4.90
2023-03-05T18:50:34.150Z,4.90
2023-03-05T18:53:02.602Z,4.90
2023-03-05T18:55:32.229Z,4.80
2023-03-05T18:58:00.721Z,4.80
2023-03-05T19:00:33.030Z,4.80
2023-03-05T19:03:03.470Z,4.80
2023-03-05T19:05:32.295Z,4.80
2023-03-05T19:08:01.039Z,4.80
2023-03-05T19:10:30.047Z,4.80
2023-03-05T19:13:08.078Z,4.80
2023-03-05T19:15:41.199Z,4.80
2023-03-05T19:18:09.944Z,4.80
2023-03-05T19:20:38.836Z,4.70
2023-03-05T19:23:07.483Z,4.70
2023-03-05T19:25:36.661Z,4.70
2023-03-05T19:28:05.567Z,4.60
2023-03-05T19:30:34.592Z,4.60
2023-03-05T19:33:06.326Z,4.60
2023-03-05T19:35:34.982Z,4.60
2023-03-05T19:38:03.749Z,4.60
2023-03-05T19:40:32.728Z,4.60
2023-03-05T19:43:01.248Z,4.50
2023-03-05T19:45:33.215Z,4.50
2023-03-05T19:48:03.552Z,4.50
2023-03-05T19:50:34.371Z,4.50
2023-03-05T19:53:03.327Z,4.50
2023-03-05T19:55:32.875Z,4.50
2023-03-05T19:58:02.212Z,4.50
2023-03-05T20:00:31.305Z,4.50
2023-03-05T20:02:59.943Z,4.50
2023-03-05T20:05:31.619Z,4.50
2023-03-05T20:08:00.500Z,4.40
2023-03-05T20:10:29.666Z,4.40
2023-03-05T20:12:58.669Z,4.40
2023-03-05T20:15:29.307Z,4.40
2023-03-05T20:17:58.990Z,4.40
2023-03-05T20:20:37.141Z,4.40
2023-03-05T20:23:07.755Z,4.40
2023-03-05T20:25:38.929Z,4.40
2023-03-05T20:28:10.869Z,4.40
2023-03-05T20:30:39.360Z,4.30
2023-03-05T20:33:07.984Z,4.30
2023-03-05T20:35:36.654Z,4.30
2023-03-05T20:38:20.875Z,4.30
2023-03-05T20:40:53.117Z,4.30
2023-03-05T20:43:22.914Z,4.30
2023-03-05T20:45:53.316Z,4.30
2023-03-05T20:48:22.728Z,4.30
2023-03-05T20:50:51.383Z,4.30
2023-03-05T20:53:21.382Z,4.30
2023-03-05T20:55:50.374Z,4.30
2023-03-05T20:58:19.071Z,4.30
2023-03-05T21:00:48.676Z,4.30
2023-03-05T21:03:17.664Z,4.20
2023-03-05T21:05:47.264Z,4.20
2023-03-05T21:08:15.951Z,4.20
2023-03-05T21:10:46.513Z,4.20
2023-03-05T21:13:15.007Z,4.20
2023-03-05T21:15:44.118Z,4.20
2023-03-05T21:18:13.465Z,4.20
2023-03-05T21:20:41.798Z,4.20
2023-03-05T21:23:10.236Z,4.20
2023-03-05T21:25:38.754Z,4.10
2023-03-05T21:28:12.922Z,4.10
2023-03-05T21:30:44.213Z,4.10
2023-03-05T21:33:16.016Z,4.10
2023-03-05T21:35:45.007Z,4.10
2023-03-05T21:38:14.324Z,4.10
2023-03-05T21:40:45.696Z,4.10
2023-03-05T21:43:17.528Z,4.00
2023-03-05T21:45:47.315Z,4.00
2023-03-05T21:48:16.821Z,4.00
2023-03-05T21:50:47.132Z,4.00
2023-03-05T21:53:16.770Z,4.00
2023-03-05T21:55:59.099Z,4.00
2023-03-05T21:58:28.925Z,3.90
2023-03-05T22:00:58.296Z,3.90
2023-03-05T22:03:27.238Z,3.90
2023-03-05T22:05:56.664Z,3.90
2023-03-05T22:08:25.892Z,3.90
2023-03-05T22:10:54.482Z,3.90
2023-03-05T22:13:23.080Z,3.90
2023-03-05T22:15:55.167Z,3.90
2023-03-05T22:18:25.206Z,3.80
2023-03-05T22:20:54.121Z,3.80
2023-03-05T22:23:24.070Z,3.80
2023-03-05T22:25:57.847Z,3.80
2023-03-05T22:28:26.857Z,3.80
2023-03-05T22:30:57.105Z,3.70
2023-03-05T22:33:29.264Z,3.70
2023-03-05T22:35:58.195Z,3.70
2023-03-05T22:38:27.090Z,3.70
2023-03-05T22:40:55.746Z,3.70
2023-03-05T22:43:24.061Z,3.60
2023-03-05T22:45:52.508Z,3.60
2023-03-05T22:48:22.469Z,3.60
2023-03-05T22:50:56.437Z,3.60
2023-03-05T22:53:24.965Z,3.60
2023-03-05T22:55:54.230Z,3.50
2023-03-05T22:58:22.800Z,3.50
2023-03-05T23:00:51.409Z,3.50
2023-03-05T23:03:21.482Z,3.50
2023-03-05T23:05:50.026Z,3.50
2023-03-05T23:08:18.631Z,3.50
2023-03-05T23:10:47.155Z,3.40
2023-03-05T23:13:15.689Z,3.40
2023-03-05T23:15:44.311Z,3.30
2023-03-05T23:18:14.757Z,3.30
2023-03-05T23:20:45.036Z,3.30
2023-03-05T23:23:13.810Z,3.30
2023-03-05T23:25:42.277Z,3.30
2023-03-05T23:28:10.728Z,3.20
2023-03-05T23:30:40.641Z,3.20
2023-03-05T23:33:14.759Z,3.20
2023-03-05T23:35:50.731Z,3.20
2023-03-05T23:38:19.318Z,3.20
2023-03-05T23:40:50.232Z,3.10
2023-03-05T23:43:19.639Z,3.10
2023-03-05T23:45:49.952Z,3.10
2023-03-05T23:48:19.059Z,3.10
2023-03-05T23:50:50.311Z,3.10
2023-03-05T23:53:21.206Z,3.10
2023-03-05T23:55:50.091Z,3.10
2023-03-05T23:58:20.353Z,3.10
